sensor_id;sensor_type;location;lat;lon;timestamp;P1;durP1;ratioP1;P2;durP2;ratioP2
11524;SDS011;5819;49.648;8.330;2022-07-23T00:01:14;7.70;;;6.93;;
11524;SDS011;5819;49.648;8.330;2022-07-23T00:03:53;12.57;;;7.40;;
11524;SDS011;5819;49.648;8.330;2022-07-23T00:06:23;7.53;;;6.82;;
11524;SDS011;5819;49.648;8.330;2022-07-23T00:08:51;9.05;;;6.38;;
11524;SDS011;5819;49.648;8.330;2022-07-23T00:11:20;8.23;;;7.15;;
11524;SDS011;5819;49.648;8.330;2022-07-23T00:13:48;8.02;;;7.20;;
11524;SDS011;5819;49.648;8.330;2022-07-23T00:16:16;8.82;;;7.93;;
11524;SDS011;5819;49.648;8.330;2022-07-23T00:18:44;8.55;;;7.68;;
11524;SDS011;5819;49.648;8.330;2022-07-23T00:21:12;7.57;;;6.82;;
11524;SDS011;5819;49.648;8.330;2022-07-23T00:23:41;7.88;;;7.18;;
11524;SDS011;5819;49.648;8.330;2022-07-23T00:26:10;7.75;;;7.05;;
11524;SDS011;5819;49.648;8.330;2022-07-23T00:28:38;8.95;;;6.78;;
11524;SDS011;5819;49.648;8.330;2022-07-23T00:31:06;8.65;;;7.43;;
11524;SDS011;5819;49.648;8.330;2022-07-23T00:33:34;8.93;;;7.90;;
11524;SDS011;5819;49.648;8.330;2022-07-23T00:36:03;8.40;;;6.97;;
11524;SDS011;5819;49.648;8.330;2022-07-23T00:38:31;7.53;;;6.75;;
11524;SDS011;5819;49.648;8.330;2022-07-23T00:41:01;7.28;;;6.57;;
11524;SDS011;5819;49.648;8.330;2022-07-23T00:43:29;7.80;;;6.72;;
11524;SDS011;5819;49.648;8.330;2022-07-23T00:45:57;8.25;;;6.85;;
11524;SDS011;5819;49.648;8.330;2022-07-23T00:48:25;7.18;;;6.53;;
11524;SDS011;5819;49.648;8.330;2022-07-23T00:50:53;7.20;;;6.60;;
11524;SDS011;5819;49.648;8.330;2022-07-23T00:53:21;7.30;;;6.45;;
11524;SDS011;5819;49.648;8.330;2022-07-23T00:55:51;7.63;;;6.88;;
11524;SDS011;5819;49.648;8.330;2022-07-23T00:58:24;8.05;;;7.13;;
11524;SDS011;5819;49.648;8.330;2022-07-23T01:00:52;7.43;;;6.60;;
11524;SDS011;5819;49.648;8.330;2022-07-23T01:03:21;7.75;;;7.05;;
11524;SDS011;5819;49.648;8.330;2022-07-23T01:05:49;8.35;;;6.85;;
11524;SDS011;5819;49.648;8.330;2022-07-23T01:08:17;8.80;;;7.10;;
11524;SDS011;5819;49.648;8.330;2022-07-23T01:10:48;9.57;;;6.72;;
11524;SDS011;5819;49.648;8.330;2022-07-23T01:13:18;8.13;;;7.10;;
11524;SDS011;5819;49.648;8.330;2022-07-23T01:15:47;7.88;;;7.07;;
11524;SDS011;5819;49.648;8.330;2022-07-23T01:18:15;9.63;;;7.20;;
11524;SDS011;5819;49.648;8.330;2022-07-23T01:20:43;8.48;;;7.47;;
11524;SDS011;5819;49.648;8.330;2022-07-23T01:23:13;7.10;;;6.45;;
11524;SDS011;5819;49.648;8.330;2022-07-23T01:25:51;7.85;;;6.93;;
11524;SDS011;5819;49.648;8.330;2022-07-23T01:28:20;7.65;;;6.95;;
11524;SDS011;5819;49.648;8.330;2022-07-23T01:30:49;7.78;;;7.07;;
11524;SDS011;5819;49.648;8.330;2022-07-23T01:33:19;8.35;;;7.55;;
11524;SDS011;5819;49.648;8.330;2022-07-23T01:35:47;8.10;;;7.47;;
11524;SDS011;5819;49.648;8.330;2022-07-23T01:38:24;9.02;;;7.13;;
11524;SDS011;5819;49.648;8.330;2022-07-23T01:40:52;8.82;;;6.75;;
11524;SDS011;5819;49.648;8.330;2022-07-23T01:43:25;8.95;;;7.45;;
11524;SDS011;5819;49.648;8.330;2022-07-23T01:45:54;9.45;;;7.18;;
11524;SDS011;5819;49.648;8.330;2022-07-23T01:48:25;8.20;;;7.40;;
11524;SDS011;5819;49.648;8.330;2022-07-23T01:51:15;9.43;;;8.10;;
11524;SDS011;5819;49.648;8.330;2022-07-23T01:53:52;9.27;;;7.80;;
11524;SDS011;5819;49.648;8.330;2022-07-23T01:56:20;7.95;;;7.30;;
11524;SDS011;5819;49.648;8.330;2022-07-23T01:58:50;8.48;;;7.65;;
11524;SDS011;5819;49.648;8.330;2022-07-23T02:01:19;8.70;;;7.82;;
11524;SDS011;5819;49.648;8.330;2022-07-23T02:03:47;8.43;;;7.50;;
11524;SDS011;5819;49.648;8.330;2022-07-23T02:06:15;10.25;;;7.90;;
11524;SDS011;5819;49.648;8.330;2022-07-23T02:08:44;7.85;;;7.15;;
11524;SDS011;5819;49.648;8.330;2022-07-23T02:11:13;8.18;;;7.38;;
11524;SDS011;5819;49.648;8.330;2022-07-23T02:13:41;8.38;;;7.57;;
11524;SDS011;5819;49.648;8.330;2022-07-23T02:16:09;8.40;;;7.60;;
11524;SDS011;5819;49.648;8.330;2022-07-23T02:18:37;8.68;;;7.30;;
11524;SDS011;5819;49.648;8.330;2022-07-23T02:21:06;8.50;;;7.70;;
11524;SDS011;5819;49.648;8.330;2022-07-23T02:23:34;8.52;;;7.65;;
11524;SDS011;5819;49.648;8.330;2022-07-23T02:26:03;8.43;;;7.63;;
11524;SDS011;5819;49.648;8.330;2022-07-23T02:28:33;7.75;;;7.05;;
11524;SDS011;5819;49.648;8.330;2022-07-23T02:31:01;9.15;;;7.53;;
11524;SDS011;5819;49.648;8.330;2022-07-23T02:33:30;10.15;;;9.07;;
11524;SDS011;5819;49.648;8.330;2022-07-23T02:35:59;9.38;;;8.13;;
11524;SDS011;5819;49.648;8.330;2022-07-23T02:38:29;9.45;;;8.60;;
11524;SDS011;5819;49.648;8.330;2022-07-23T02:40:57;13.20;;;8.43;;
11524;SDS011;5819;49.648;8.330;2022-07-23T02:43:26;8.82;;;8.05;;
11524;SDS011;5819;49.648;8.330;2022-07-23T02:45:56;8.75;;;7.85;;
11524;SDS011;5819;49.648;8.330;2022-07-23T02:48:25;10.05;;;8.13;;
11524;SDS011;5819;49.648;8.330;2022-07-23T02:50:53;9.07;;;8.27;;
11524;SDS011;5819;49.648;8.330;2022-07-23T02:53:27;8.05;;;7.35;;
11524;SDS011;5819;49.648;8.330;2022-07-23T02:55:55;9.57;;;8.57;;
11524;SDS011;5819;49.648;8.330;2022-07-23T02:58:23;9.02;;;8.07;;
11524;SDS011;5819;49.648;8.330;2022-07-23T03:00:52;9.00;;;8.10;;
11524;SDS011;5819;49.648;8.330;2022-07-23T03:03:22;9.13;;;8.32;;
11524;SDS011;5819;49.648;8.330;2022-07-23T03:05:55;8.75;;;7.97;;
11524;SDS011;5819;49.648;8.330;2022-07-23T03:08:23;8.80;;;8.00;;
11524;SDS011;5819;49.648;8.330;2022-07-23T03:10:52;8.85;;;7.95;;
11524;SDS011;5819;49.648;8.330;2022-07-23T03:13:20;8.48;;;7.68;;
11524;SDS011;5819;49.648;8.330;2022-07-23T03:15:48;8.90;;;8.10;;
11524;SDS011;5819;49.648;8.330;2022-07-23T03:18:16;8.68;;;7.50;;
11524;SDS011;5819;49.648;8.330;2022-07-23T03:20:48;9.13;;;8.23;;
11524;SDS011;5819;49.648;8.330;2022-07-23T03:23:16;9.95;;;7.85;;
11524;SDS011;5819;49.648;8.330;2022-07-23T03:25:46;8.77;;;7.97;;
11524;SDS011;5819;49.648;8.330;2022-07-23T03:28:21;9.15;;;8.25;;
11524;SDS011;5819;49.648;8.330;2022-07-23T03:30:49;8.55;;;7.75;;
11524;SDS011;5819;49.648;8.330;2022-07-23T03:33:17;10.77;;;8.65;;
11524;SDS011;5819;49.648;8.330;2022-07-23T03:35:48;9.60;;;8.70;;
11524;SDS011;5819;49.648;8.330;2022-07-23T03:38:21;9.60;;;8.60;;
11524;SDS011;5819;49.648;8.330;2022-07-23T03:40:49;9.85;;;8.82;;
11524;SDS011;5819;49.648;8.330;2022-07-23T03:43:17;8.85;;;8.10;;
11524;SDS011;5819;49.648;8.330;2022-07-23T03:45:45;9.48;;;8.45;;
11524;SDS011;5819;49.648;8.330;2022-07-23T03:48:14;9.90;;;8.75;;
11524;SDS011;5819;49.648;8.330;2022-07-23T03:50:44;9.65;;;8.75;;
11524;SDS011;5819;49.648;8.330;2022-07-23T03:53:13;9.95;;;9.05;;
11524;SDS011;5819;49.648;8.330;2022-07-23T03:55:41;9.38;;;8.48;;
11524;SDS011;5819;49.648;8.330;2022-07-23T03:58:09;10.02;;;9.07;;
11524;SDS011;5819;49.648;8.330;2022-07-23T04:00:37;9.50;;;8.60;;
11524;SDS011;5819;49.648;8.330;2022-07-23T04:03:06;11.38;;;8.80;;
11524;SDS011;5819;49.648;8.330;2022-07-23T04:05:34;9.57;;;8.75;;
11524;SDS011;5819;49.648;8.330;2022-07-23T04:08:09;9.57;;;8.68;;
11524;SDS011;5819;49.648;8.330;2022-07-23T04:10:43;11.00;;;9.70;;
11524;SDS011;5819;49.648;8.330;2022-07-23T04:13:11;10.07;;;9.07;;
11524;SDS011;5819;49.648;8.330;2022-07-23T04:15:40;10.50;;;9.40;;
11524;SDS011;5819;49.648;8.330;2022-07-23T04:18:09;10.30;;;9.30;;
11524;SDS011;5819;49.648;8.330;2022-07-23T04:20:54;10.43;;;9.32;;
11524;SDS011;5819;49.648;8.330;2022-07-23T04:23:23;13.25;;;10.10;;
11524;SDS011;5819;49.648;8.330;2022-07-23T04:25:53;11.45;;;10.35;;
11524;SDS011;5819;49.648;8.330;2022-07-23T04:28:23;10.93;;;9.93;;
11524;SDS011;5819;49.648;8.330;2022-07-23T04:30:51;11.93;;;10.73;;
11524;SDS011;5819;49.648;8.330;2022-07-23T04:33:20;11.45;;;10.23;;
11524;SDS011;5819;49.648;8.330;2022-07-23T04:35:50;12.90;;;10.60;;
11524;SDS011;5819;49.648;8.330;2022-07-23T04:38:19;11.57;;;10.48;;
11524;SDS011;5819;49.648;8.330;2022-07-23T04:40:50;13.05;;;10.52;;
11524;SDS011;5819;49.648;8.330;2022-07-23T04:43:20;15.93;;;11.80;;
11524;SDS011;5819;49.648;8.330;2022-07-23T04:45:50;12.63;;;11.32;;
11524;SDS011;5819;49.648;8.330;2022-07-23T04:48:18;13.32;;;11.93;;
11524;SDS011;5819;49.648;8.330;2022-07-23T04:50:55;11.30;;;10.13;;
11524;SDS011;5819;49.648;8.330;2022-07-23T04:53:25;12.82;;;11.52;;
11524;SDS011;5819;49.648;8.330;2022-07-23T04:55:57;13.82;;;12.35;;
11524;SDS011;5819;49.648;8.330;2022-07-23T04:58:26;15.32;;;11.38;;
11524;SDS011;5819;49.648;8.330;2022-07-23T05:00:55;12.40;;;11.30;;
11524;SDS011;5819;49.648;8.330;2022-07-23T05:03:25;12.55;;;11.30;;
11524;SDS011;5819;49.648;8.330;2022-07-23T05:05:53;13.75;;;12.35;;
11524;SDS011;5819;49.648;8.330;2022-07-23T05:08:21;13.23;;;11.85;;
11524;SDS011;5819;49.648;8.330;2022-07-23T05:10:53;13.60;;;12.20;;
11524;SDS011;5819;49.648;8.330;2022-07-23T05:13:21;13.30;;;11.93;;
11524;SDS011;5819;49.648;8.330;2022-07-23T05:15:53;12.55;;;11.35;;
11524;SDS011;5819;49.648;8.330;2022-07-23T05:18:22;13.25;;;12.05;;
11524;SDS011;5819;49.648;8.330;2022-07-23T05:20:52;13.82;;;12.43;;
11524;SDS011;5819;49.648;8.330;2022-07-23T05:23:23;15.15;;;12.68;;
11524;SDS011;5819;49.648;8.330;2022-07-23T05:25:52;13.07;;;11.88;;
11524;SDS011;5819;49.648;8.330;2022-07-23T05:28:20;12.88;;;11.52;;
11524;SDS011;5819;49.648;8.330;2022-07-23T05:30:52;13.40;;;12.20;;
11524;SDS011;5819;49.648;8.330;2022-07-23T05:33:22;12.57;;;11.35;;
11524;SDS011;5819;49.648;8.330;2022-07-23T05:35:51;13.75;;;12.38;;
11524;SDS011;5819;49.648;8.330;2022-07-23T05:38:26;15.95;;;12.55;;
11524;SDS011;5819;49.648;8.330;2022-07-23T05:40:57;14.48;;;12.98;;
11524;SDS011;5819;49.648;8.330;2022-07-23T05:43:27;13.70;;;12.30;;
11524;SDS011;5819;49.648;8.330;2022-07-23T05:46:01;14.05;;;12.65;;
11524;SDS011;5819;49.648;8.330;2022-07-23T05:48:29;14.40;;;12.00;;
11524;SDS011;5819;49.648;8.330;2022-07-23T05:51:06;14.05;;;12.65;;
11524;SDS011;5819;49.648;8.330;2022-07-23T05:53:34;13.05;;;11.85;;
11524;SDS011;5819;49.648;8.330;2022-07-23T05:56:14;14.77;;;13.38;;
11524;SDS011;5819;49.648;8.330;2022-07-23T05:58:43;13.32;;;12.10;;
11524;SDS011;5819;49.648;8.330;2022-07-23T06:01:15;14.32;;;13.02;;
11524;SDS011;5819;49.648;8.330;2022-07-23T06:03:57;12.20;;;10.98;;
11524;SDS011;5819;49.648;8.330;2022-07-23T06:06:32;14.05;;;12.77;;
11524;SDS011;5819;49.648;8.330;2022-07-23T06:09:01;13.32;;;12.07;;
11524;SDS011;5819;49.648;8.330;2022-07-23T06:11:30;14.60;;;12.32;;
11524;SDS011;5819;49.648;8.330;2022-07-23T06:13:58;14.63;;;13.23;;
11524;SDS011;5819;49.648;8.330;2022-07-23T06:16:41;14.60;;;12.68;;
11524;SDS011;5819;49.648;8.330;2022-07-23T06:19:09;13.50;;;12.20;;
11524;SDS011;5819;49.648;8.330;2022-07-23T06:21:39;13.57;;;12.32;;
11524;SDS011;5819;49.648;8.330;2022-07-23T06:24:13;13.07;;;11.77;;
11524;SDS011;5819;49.648;8.330;2022-07-23T06:26:42;13.60;;;11.88;;
11524;SDS011;5819;49.648;8.330;2022-07-23T06:29:11;13.05;;;11.75;;
11524;SDS011;5819;49.648;8.330;2022-07-23T06:31:42;14.10;;;11.68;;
11524;SDS011;5819;49.648;8.330;2022-07-23T06:34:13;11.68;;;10.48;;
11524;SDS011;5819;49.648;8.330;2022-07-23T06:36:41;12.38;;;11.18;;
11524;SDS011;5819;49.648;8.330;2022-07-23T06:39:09;12.02;;;10.50;;
11524;SDS011;5819;49.648;8.330;2022-07-23T06:41:38;11.55;;;10.45;;
11524;SDS011;5819;49.648;8.330;2022-07-23T06:44:06;13.30;;;11.70;;
11524;SDS011;5819;49.648;8.330;2022-07-23T06:46:35;11.80;;;10.63;;
11524;SDS011;5819;49.648;8.330;2022-07-23T06:49:05;11.63;;;10.48;;
11524;SDS011;5819;49.648;8.330;2022-07-23T06:51:34;11.73;;;10.55;;
11524;SDS011;5819;49.648;8.330;2022-07-23T06:54:04;11.88;;;10.70;;
11524;SDS011;5819;49.648;8.330;2022-07-23T06:56:32;13.85;;;11.73;;
11524;SDS011;5819;49.648;8.330;2022-07-23T06:59:01;12.18;;;11.07;;
11524;SDS011;5819;49.648;8.330;2022-07-23T07:01:33;11.77;;;10.57;;
11524;SDS011;5819;49.648;8.330;2022-07-23T07:04:02;11.07;;;9.93;;
11524;SDS011;5819;49.648;8.330;2022-07-23T07:06:31;12.93;;;10.95;;
11524;SDS011;5819;49.648;8.330;2022-07-23T07:09:00;12.40;;;11.30;;
11524;SDS011;5819;49.648;8.330;2022-07-23T07:11:28;13.23;;;11.75;;
11524;SDS011;5819;49.648;8.330;2022-07-23T07:13:56;10.20;;;9.23;;
11524;SDS011;5819;49.648;8.330;2022-07-23T07:16:25;12.20;;;10.95;;
11524;SDS011;5819;49.648;8.330;2022-07-23T07:18:58;11.45;;;10.32;;
11524;SDS011;5819;49.648;8.330;2022-07-23T07:21:27;12.18;;;10.75;;
11524;SDS011;5819;49.648;8.330;2022-07-23T07:23:57;12.80;;;11.50;;
11524;SDS011;5819;49.648;8.330;2022-07-23T07:26:26;11.05;;;10.05;;
11524;SDS011;5819;49.648;8.330;2022-07-23T07:28:54;11.57;;;10.43;;
11524;SDS011;5819;49.648;8.330;2022-07-23T07:31:22;10.48;;;9.40;;
11524;SDS011;5819;49.648;8.330;2022-07-23T07:33:51;10.55;;;9.20;;
11524;SDS011;5819;49.648;8.330;2022-07-23T07:36:20;11.18;;;10.18;;
11524;SDS011;5819;49.648;8.330;2022-07-23T07:38:49;10.20;;;9.30;;
11524;SDS011;5819;49.648;8.330;2022-07-23T07:41:18;10.90;;;9.13;;
11524;SDS011;5819;49.648;8.330;2022-07-23T07:43:50;10.40;;;9.40;;
11524;SDS011;5819;49.648;8.330;2022-07-23T07:46:18;12.30;;;9.60;;
11524;SDS011;5819;49.648;8.330;2022-07-23T07:48:47;10.00;;;9.10;;
11524;SDS011;5819;49.648;8.330;2022-07-23T07:51:21;10.65;;;9.13;;
11524;SDS011;5819;49.648;8.330;2022-07-23T07:53:51;10.63;;;9.70;;
11524;SDS011;5819;49.648;8.330;2022-07-23T07:56:21;10.70;;;9.60;;
11524;SDS011;5819;49.648;8.330;2022-07-23T07:58:49;10.43;;;9.38;;
11524;SDS011;5819;49.648;8.330;2022-07-23T08:01:17;10.95;;;9.90;;
11524;SDS011;5819;49.648;8.330;2022-07-23T08:03:47;11.23;;;10.10;;
11524;SDS011;5819;49.648;8.330;2022-07-23T08:06:16;10.68;;;9.63;;
11524;SDS011;5819;49.648;8.330;2022-07-23T08:08:46;11.70;;;9.63;;
11524;SDS011;5819;49.648;8.330;2022-07-23T08:11:14;10.57;;;9.57;;
11524;SDS011;5819;49.648;8.330;2022-07-23T08:13:44;11.82;;;9.60;;
11524;SDS011;5819;49.648;8.330;2022-07-23T08:16:12;10.80;;;9.23;;
11524;SDS011;5819;49.648;8.330;2022-07-23T08:18:41;10.55;;;9.55;;
11524;SDS011;5819;49.648;8.330;2022-07-23T08:21:09;10.50;;;9.60;;
11524;SDS011;5819;49.648;8.330;2022-07-23T08:23:37;10.82;;;9.75;;
11524;SDS011;5819;49.648;8.330;2022-07-23T08:26:07;9.82;;;9.02;;
11524;SDS011;5819;49.648;8.330;2022-07-23T08:28:35;9.60;;;8.70;;
11524;SDS011;5819;49.648;8.330;2022-07-23T08:31:05;11.18;;;10.18;;
11524;SDS011;5819;49.648;8.330;2022-07-23T08:33:37;10.60;;;9.20;;
11524;SDS011;5819;49.648;8.330;2022-07-23T08:36:06;10.85;;;9.75;;
11524;SDS011;5819;49.648;8.330;2022-07-23T08:38:35;9.98;;;8.98;;
11524;SDS011;5819;49.648;8.330;2022-07-23T08:41:03;10.98;;;9.88;;
11524;SDS011;5819;49.648;8.330;2022-07-23T08:43:35;10.80;;;9.70;;
11524;SDS011;5819;49.648;8.330;2022-07-23T08:46:05;10.32;;;9.32;;
11524;SDS011;5819;49.648;8.330;2022-07-23T08:48:36;10.02;;;9.10;;
11524;SDS011;5819;49.648;8.330;2022-07-23T08:51:08;9.82;;;8.93;;
11524;SDS011;5819;49.648;8.330;2022-07-23T08:53:38;10.85;;;9.80;;
11524;SDS011;5819;49.648;8.330;2022-07-23T08:56:08;10.45;;;9.45;;
11524;SDS011;5819;49.648;8.330;2022-07-23T08:58:37;11.57;;;9.18;;
11524;SDS011;5819;49.648;8.330;2022-07-23T09:01:07;8.98;;;8.13;;
11524;SDS011;5819;49.648;8.330;2022-07-23T09:03:36;11.10;;;10.10;;
11524;SDS011;5819;49.648;8.330;2022-07-23T09:06:06;9.43;;;8.38;;
11524;SDS011;5819;49.648;8.330;2022-07-23T09:08:35;12.40;;;10.07;;
11524;SDS011;5819;49.648;8.330;2022-07-23T09:11:05;10.07;;;9.23;;
11524;SDS011;5819;49.648;8.330;2022-07-23T09:13:36;11.10;;;9.93;;
11524;SDS011;5819;49.648;8.330;2022-07-23T09:16:12;10.40;;;9.43;;
11524;SDS011;5819;49.648;8.330;2022-07-23T09:18:43;10.77;;;9.88;;
11524;SDS011;5819;49.648;8.330;2022-07-23T09:21:20;12.00;;;9.25;;
11524;SDS011;5819;49.648;8.330;2022-07-23T09:23:55;12.45;;;9.30;;
11524;SDS011;5819;49.648;8.330;2022-07-23T09:26:27;8.85;;;8.05;;
11524;SDS011;5819;49.648;8.330;2022-07-23T09:29:10;9.23;;;8.43;;
11524;SDS011;5819;49.648;8.330;2022-07-23T09:31:45;9.07;;;8.27;;
11524;SDS011;5819;49.648;8.330;2022-07-23T09:34:18;11.00;;;9.57;;
11524;SDS011;5819;49.648;8.330;2022-07-23T09:36:50;9.45;;;8.65;;
11524;SDS011;5819;49.648;8.330;2022-07-23T09:39:24;9.70;;;8.60;;
11524;SDS011;5819;49.648;8.330;2022-07-23T09:41:54;9.77;;;8.98;;
11524;SDS011;5819;49.648;8.330;2022-07-23T09:44:23;10.30;;;9.18;;
11524;SDS011;5819;49.648;8.330;2022-07-23T09:46:58;9.65;;;8.68;;
11524;SDS011;5819;49.648;8.330;2022-07-23T09:49:28;10.63;;;9.63;;
11524;SDS011;5819;49.648;8.330;2022-07-23T09:51:57;9.05;;;8.25;;
11524;SDS011;5819;49.648;8.330;2022-07-23T09:54:27;11.55;;;10.27;;
11524;SDS011;5819;49.648;8.330;2022-07-23T09:57:01;9.57;;;8.65;;
11524;SDS011;5819;49.648;8.330;2022-07-23T09:59:33;10.50;;;9.50;;
11524;SDS011;5819;49.648;8.330;2022-07-23T10:02:06;9.43;;;8.52;;
11524;SDS011;5819;49.648;8.330;2022-07-23T10:04:50;10.30;;;9.20;;
11524;SDS011;5819;49.648;8.330;2022-07-23T10:07:31;9.60;;;8.65;;
11524;SDS011;5819;49.648;8.330;2022-07-23T10:10:20;9.23;;;8.32;;
11524;SDS011;5819;49.648;8.330;2022-07-23T10:13:23;8.25;;;7.50;;
11524;SDS011;5819;49.648;8.330;2022-07-23T10:16:10;8.38;;;7.68;;
11524;SDS011;5819;49.648;8.330;2022-07-23T10:18:54;9.02;;;8.25;;
11524;SDS011;5819;49.648;8.330;2022-07-23T10:21:24;8.00;;;7.30;;
11524;SDS011;5819;49.648;8.330;2022-07-23T10:24:10;9.75;;;7.50;;
11524;SDS011;5819;49.648;8.330;2022-07-23T10:26:50;8.25;;;7.13;;
11524;SDS011;5819;49.648;8.330;2022-07-23T10:29:30;8.00;;;7.30;;
11524;SDS011;5819;49.648;8.330;2022-07-23T10:32:14;10.05;;;9.23;;
11524;SDS011;5819;49.648;8.330;2022-07-23T10:35:03;9.50;;;8.70;;
11524;SDS011;5819;49.648;8.330;2022-07-23T10:37:38;9.93;;;9.13;;
11524;SDS011;5819;49.648;8.330;2022-07-23T10:40:14;8.55;;;7.85;;
11524;SDS011;5819;49.648;8.330;2022-07-23T10:42:44;8.95;;;8.15;;
11524;SDS011;5819;49.648;8.330;2022-07-23T10:45:25;9.88;;;8.95;;
11524;SDS011;5819;49.648;8.330;2022-07-23T10:47:55;8.98;;;8.07;;
11524;SDS011;5819;49.648;8.330;2022-07-23T10:50:40;9.25;;;8.45;;
11524;SDS011;5819;49.648;8.330;2022-07-23T10:53:11;9.95;;;8.95;;
11524;SDS011;5819;49.648;8.330;2022-07-23T10:55:47;9.10;;;8.30;;
11524;SDS011;5819;49.648;8.330;2022-07-23T10:58:21;9.18;;;8.32;;
11524;SDS011;5819;49.648;8.330;2022-07-23T11:03:59;9.57;;;8.70;;
11524;SDS011;5819;49.648;8.330;2022-07-23T11:09:28;8.23;;;7.40;;
11524;SDS011;5819;49.648;8.330;2022-07-23T11:15:00;9.85;;;8.77;;
11524;SDS011;5819;49.648;8.330;2022-07-23T11:17:30;8.85;;;8.15;;
11524;SDS011;5819;49.648;8.330;2022-07-23T11:20:12;8.65;;;8.00;;
11524;SDS011;5819;49.648;8.330;2022-07-23T11:22:49;9.65;;;8.80;;
11524;SDS011;5819;49.648;8.330;2022-07-23T11:25:30;8.30;;;7.50;;
11524;SDS011;5819;49.648;8.330;2022-07-23T11:28:10;8.98;;;8.18;;
11524;SDS011;5819;49.648;8.330;2022-07-23T11:30:42;8.05;;;7.35;;
11524;SDS011;5819;49.648;8.330;2022-07-23T11:33:18;9.23;;;8.32;;
11524;SDS011;5819;49.648;8.330;2022-07-23T11:35:49;8.38;;;7.68;;
11524;SDS011;5819;49.648;8.330;2022-07-23T11:38:30;8.10;;;7.43;;
11524;SDS011;5819;49.648;8.330;2022-07-23T11:41:00;8.82;;;7.95;;
11524;SDS011;5819;49.648;8.330;2022-07-23T11:43:29;9.00;;;8.10;;
11524;SDS011;5819;49.648;8.330;2022-07-23T11:45:58;9.23;;;8.43;;
11524;SDS011;5819;49.648;8.330;2022-07-23T11:48:29;9.82;;;7.90;;
11524;SDS011;5819;49.648;8.330;2022-07-23T11:51:06;9.10;;;8.30;;
11524;SDS011;5819;49.648;8.330;2022-07-23T11:53:35;8.55;;;7.75;;
11524;SDS011;5819;49.648;8.330;2022-07-23T11:56:06;9.20;;;8.30;;
11524;SDS011;5819;49.648;8.330;2022-07-23T11:58:36;8.68;;;7.70;;
11524;SDS011;5819;49.648;8.330;2022-07-23T12:01:06;9.07;;;8.18;;
11524;SDS011;5819;49.648;8.330;2022-07-23T12:03:48;9.20;;;8.25;;
11524;SDS011;5819;49.648;8.330;2022-07-23T12:06:17;9.02;;;8.35;;
11524;SDS011;5819;49.648;8.330;2022-07-23T12:08:45;9.38;;;8.43;;
11524;SDS011;5819;49.648;8.330;2022-07-23T12:11:16;8.68;;;7.78;;
11524;SDS011;5819;49.648;8.330;2022-07-23T12:13:55;8.23;;;7.53;;
11524;SDS011;5819;49.648;8.330;2022-07-23T12:16:24;8.63;;;7.38;;
11524;SDS011;5819;49.648;8.330;2022-07-23T12:18:52;8.27;;;7.50;;
11524;SDS011;5819;49.648;8.330;2022-07-23T12:21:22;8.85;;;7.95;;
11524;SDS011;5819;49.648;8.330;2022-07-23T12:23:50;8.35;;;7.65;;
11524;SDS011;5819;49.648;8.330;2022-07-23T12:26:21;8.73;;;7.93;;
11524;SDS011;5819;49.648;8.330;2022-07-23T12:28:51;8.80;;;8.00;;
11524;SDS011;5819;49.648;8.330;2022-07-23T12:31:25;8.65;;;7.68;;
11524;SDS011;5819;49.648;8.330;2022-07-23T12:33:55;8.57;;;7.78;;
11524;SDS011;5819;49.648;8.330;2022-07-23T12:36:36;9.00;;;8.10;;
11524;SDS011;5819;49.648;8.330;2022-07-23T12:39:05;8.60;;;7.65;;
11524;SDS011;5819;49.648;8.330;2022-07-23T12:44:19;8.43;;;7.60;;
11524;SDS011;5819;49.648;8.330;2022-07-23T12:46:49;8.52;;;7.72;;
11524;SDS011;5819;49.648;8.330;2022-07-23T12:49:24;8.95;;;8.05;;
11524;SDS011;5819;49.648;8.330;2022-07-23T12:51:56;9.15;;;8.25;;
11524;SDS011;5819;49.648;8.330;2022-07-23T12:54:27;9.75;;;8.82;;
11524;SDS011;5819;49.648;8.330;2022-07-23T12:56:57;8.65;;;7.80;;
11524;SDS011;5819;49.648;8.330;2022-07-23T12:59:26;8.88;;;7.82;;
11524;SDS011;5819;49.648;8.330;2022-07-23T13:01:59;8.30;;;7.60;;
11524;SDS011;5819;49.648;8.330;2022-07-23T13:04:29;8.32;;;7.53;;
11524;SDS011;5819;49.648;8.330;2022-07-23T13:07:00;8.70;;;8.00;;
11524;SDS011;5819;49.648;8.330;2022-07-23T13:09:32;9.32;;;8.15;;
11524;SDS011;5819;49.648;8.330;2022-07-23T13:12:09;8.07;;;7.20;;
11524;SDS011;5819;49.648;8.330;2022-07-23T13:14:38;8.90;;;8.07;;
11524;SDS011;5819;49.648;8.330;2022-07-23T13:17:07;8.95;;;7.68;;
11524;SDS011;5819;49.648;8.330;2022-07-23T13:19:40;8.20;;;7.50;;
11524;SDS011;5819;49.648;8.330;2022-07-23T13:22:09;7.85;;;7.10;;
11524;SDS011;5819;49.648;8.330;2022-07-23T13:24:37;8.70;;;7.72;;
11524;SDS011;5819;49.648;8.330;2022-07-23T13:27:06;7.45;;;6.75;;
11524;SDS011;5819;49.648;8.330;2022-07-23T13:29:40;7.60;;;6.95;;
11524;SDS011;5819;49.648;8.330;2022-07-23T13:32:11;7.68;;;6.97;;
11524;SDS011;5819;49.648;8.330;2022-07-23T13:34:41;8.38;;;7.60;;
11524;SDS011;5819;49.648;8.330;2022-07-23T13:37:10;7.90;;;7.10;;
11524;SDS011;5819;49.648;8.330;2022-07-23T13:39:39;7.35;;;6.82;;
11524;SDS011;5819;49.648;8.330;2022-07-23T13:42:11;7.45;;;6.80;;
11524;SDS011;5819;49.648;8.330;2022-07-23T13:44:41;8.05;;;7.10;;
11524;SDS011;5819;49.648;8.330;2022-07-23T13:47:09;7.32;;;6.63;;
11524;SDS011;5819;49.648;8.330;2022-07-23T13:49:37;8.25;;;7.50;;
11524;SDS011;5819;49.648;8.330;2022-07-23T13:52:06;9.32;;;6.88;;
11524;SDS011;5819;49.648;8.330;2022-07-23T13:54:34;7.72;;;6.97;;
11524;SDS011;5819;49.648;8.330;2022-07-23T13:57:03;7.47;;;6.88;;
11524;SDS011;5819;49.648;8.330;2022-07-23T13:59:31;7.60;;;7.00;;
11524;SDS011;5819;49.648;8.330;2022-07-23T14:02:04;7.78;;;7.18;;
11524;SDS011;5819;49.648;8.330;2022-07-23T14:04:50;7.55;;;6.53;;
11524;SDS011;5819;49.648;8.330;2022-07-23T14:07:19;7.88;;;7.15;;
11524;SDS011;5819;49.648;8.330;2022-07-23T14:09:48;7.88;;;7.05;;
11524;SDS011;5819;49.648;8.330;2022-07-23T14:12:17;6.45;;;5.95;;
11524;SDS011;5819;49.648;8.330;2022-07-23T14:14:49;7.75;;;6.70;;
11524;SDS011;5819;49.648;8.330;2022-07-23T14:17:20;7.50;;;6.72;;
11524;SDS011;5819;49.648;8.330;2022-07-23T14:19:51;6.78;;;6.15;;
11524;SDS011;5819;49.648;8.330;2022-07-23T14:22:20;7.07;;;6.57;;
11524;SDS011;5819;49.648;8.330;2022-07-23T14:24:50;7.80;;;7.00;;
11524;SDS011;5819;49.648;8.330;2022-07-23T14:27:18;8.18;;;6.80;;
11524;SDS011;5819;49.648;8.330;2022-07-23T14:29:46;6.78;;;6.28;;
11524;SDS011;5819;49.648;8.330;2022-07-23T14:32:18;9.10;;;6.55;;
11524;SDS011;5819;49.648;8.330;2022-07-23T14:34:49;9.57;;;7.25;;
11524;SDS011;5819;49.648;8.330;2022-07-23T14:37:17;7.45;;;6.78;;
11524;SDS011;5819;49.648;8.330;2022-07-23T14:39:46;7.40;;;6.80;;
11524;SDS011;5819;49.648;8.330;2022-07-23T14:42:15;7.15;;;6.63;;
11524;SDS011;5819;49.648;8.330;2022-07-23T14:44:44;8.40;;;7.60;;
11524;SDS011;5819;49.648;8.330;2022-07-23T14:47:14;7.88;;;7.18;;
11524;SDS011;5819;49.648;8.330;2022-07-23T14:49:48;7.57;;;6.95;;
11524;SDS011;5819;49.648;8.330;2022-07-23T14:52:18;8.05;;;7.28;;
11524;SDS011;5819;49.648;8.330;2022-07-23T14:54:47;7.20;;;6.60;;
11524;SDS011;5819;49.648;8.330;2022-07-23T14:57:18;8.05;;;7.32;;
11524;SDS011;5819;49.648;8.330;2022-07-23T14:59:52;8.30;;;6.95;;
11524;SDS011;5819;49.648;8.330;2022-07-23T15:02:22;6.95;;;6.32;;
11524;SDS011;5819;49.648;8.330;2022-07-23T15:04:51;6.97;;;6.38;;
11524;SDS011;5819;49.648;8.330;2022-07-23T15:07:19;7.55;;;6.90;;
11524;SDS011;5819;49.648;8.330;2022-07-23T15:09:55;7.78;;;6.47;;
11524;SDS011;5819;49.648;8.330;2022-07-23T15:12:24;7.47;;;6.78;;
11524;SDS011;5819;49.648;8.330;2022-07-23T15:14:52;7.20;;;6.60;;
11524;SDS011;5819;49.648;8.330;2022-07-23T15:17:21;7.97;;;7.15;;
11524;SDS011;5819;49.648;8.330;2022-07-23T15:19:53;7.88;;;7.07;;
11524;SDS011;5819;49.648;8.330;2022-07-23T15:22:23;7.55;;;6.72;;
11524;SDS011;5819;49.648;8.330;2022-07-23T15:24:53;6.72;;;6.18;;
11524;SDS011;5819;49.648;8.330;2022-07-23T15:27:23;7.00;;;6.10;;